createdAt,value
2023-01-09T00:00:54.775Z,98397.97
2023-01-09T00:03:22.592Z,98371.06
2023-01-09T00:05:50.827Z,98374.38
2023-01-09T00:08:20.258Z,98380.59
2023-01-09T00:10:50.635Z,98386.66
2023-01-09T00:13:19.076Z,98379.91
2023-01-09T00:15:49.055Z,98365.97
2023-01-09T00:18:16.961Z,98365.34
2023-01-09T00:20:44.910Z,98363.91
2023-01-09T00:23:12.860Z,98359.72
2023-01-09T00:25:42.600Z,98360.47
2023-01-09T00:28:10.577Z,98298.88
2023-01-09T00:30:38.812Z,98344.09
2023-01-09T00:33:06.772Z,98345.19
2023-01-09T00:35:34.985Z,98346.13
2023-01-09T00:38:03.817Z,98333.94
2023-01-09T00:40:31.889Z,98335.75
2023-01-09T00:43:01.853Z,98333.78
2023-01-09T00:45:31.146Z,98226.56
2023-01-09T00:48:03.919Z,98330.66
2023-01-09T00:50:34.432Z,98332.94
2023-01-09T00:53:08.767Z,98315.41
2023-01-09T00:55:39.643Z,98326.88
2023-01-09T00:58:10.179Z,98318.84
2023-01-09T01:00:38.123Z,98326.06
2023-01-09T01:03:06.102Z,98314.78
2023-01-09T01:05:51.315Z,98306.28
2023-01-09T01:08:20.908Z,98249.34
2023-01-09T01:10:49.350Z,98317.53
2023-01-09T01:13:18.647Z,98317.53
2023-01-09T01:15:47.522Z,98322.06
2023-01-09T01:18:15.849Z,98319.72
2023-01-09T01:20:44.934Z,98320.47
2023-01-09T01:23:12.927Z,98325.63
2023-01-09T01:25:42.263Z,98311.34
2023-01-09T01:28:11.347Z,98322.66
2023-01-09T01:30:42.323Z,98316.44
2023-01-09T01:33:11.344Z,98312.66
2023-01-09T01:35:39.707Z,98303.59
2023-01-09T01:38:07.629Z,98308.38
2023-01-09T01:40:38.187Z,98306.84
2023-01-09T01:43:06.176Z,98300.16
2023-01-09T01:45:34.493Z,98287.19
2023-01-09T01:48:07.722Z,98291.53
2023-01-09T01:50:40.808Z,98298.06
2023-01-09T01:53:14.259Z,98299.41
2023-01-09T01:55:48.194Z,98248.31
2023-01-09T01:58:17.193Z,98275.56
2023-01-09T02:00:47.723Z,98296.25
2023-01-09T02:03:20.871Z,98293.16
2023-01-09T02:05:48.813Z,98195.25
2023-01-09T02:08:16.999Z,98290.88
2023-01-09T02:10:46.234Z,98287.81
2023-01-09T02:13:15.146Z,98276.13
2023-01-09T02:15:53.879Z,98286.97
2023-01-09T02:18:40.546Z,98285.56
2023-01-09T02:21:14.964Z,98282.81
2023-01-09T02:24:29.600Z,98283.94
2023-01-09T02:27:06.845Z,98267.53
2023-01-09T02:30:14.397Z,98267.56
2023-01-09T02:32:54.339Z,98265.66
2023-01-09T02:35:35.407Z,98271.94
2023-01-09T02:38:17.119Z,98272.50
2023-01-09T02:40:51.224Z,98241.63
2023-01-09T02:43:19.839Z,98267.84
2023-01-09T02:45:47.800Z,98230.00
2023-01-09T02:48:17.059Z,98232.41
2023-01-09T02:50:52.343Z,98263.34
2023-01-09T02:53:59.200Z,98257.22
2023-01-09T02:56:53.155Z,98252.47
2023-01-09T02:59:30.561Z,98250.03
2023-01-09T03:02:11.420Z,98258.59
2023-01-09T03:04:49.210Z,98174.66
2023-01-09T03:07:25.799Z,98265.16
2023-01-09T03:09:59.948Z,98137.31
2023-01-09T03:12:32.701Z,98278.97
2023-01-09T03:15:02.939Z,98272.31
2023-01-09T03:17:33.607Z,98273.03
2023-01-09T03:20:06.122Z,98252.28
2023-01-09T03:22:34.034Z,98284.38
2023-01-09T03:25:02.046Z,98261.00
2023-01-09T03:27:30.173Z,98280.88
2023-01-09T03:29:57.971Z,98259.22
2023-01-09T03:32:27.772Z,98277.16
2023-01-09T03:34:55.696Z,98181.53
2023-01-09T03:37:25.095Z,98146.06
2023-01-09T03:39:53.219Z,98278.53
2023-01-09T03:42:21.113Z,98222.22
2023-01-09T03:44:50.776Z,98283.34
2023-01-09T03:47:18.746Z,98266.44
2023-01-09T03:49:46.652Z,98142.81
2023-01-09T03:52:14.691Z,98288.88
2023-01-09T03:54:44.100Z,98265.53
2023-01-09T03:57:11.932Z,98241.25
2023-01-09T03:59:39.914Z,98173.03
2023-01-09T04:02:08.446Z,98096.44
2023-01-09T04:04:36.441Z,98268.28
2023-01-09T04:07:04.368Z,98266.06
2023-01-09T04:09:32.312Z,98279.78
2023-01-09T04:12:01.807Z,98276.88
2023-01-09T04:14:29.668Z,98268.69
2023-01-09T04:16:57.576Z,98269.50
2023-01-09T04:19:25.540Z,98204.28
2023-01-09T04:21:53.582Z,98285.66
2023-01-09T04:24:21.396Z,98288.56
2023-01-09T04:26:49.311Z,98292.00
2023-01-09T04:29:18.737Z,98294.94
2023-01-09T04:31:46.663Z,98293.66
2023-01-09T04:34:14.575Z,98286.59
2023-01-09T04:36:42.995Z,98299.59
2023-01-09T04:39:10.934Z,98306.09
2023-01-09T04:41:50.665Z,98305.06
2023-01-09T04:44:22.516Z,98285.66
2023-01-09T04:46:50.496Z,98226.59
2023-01-09T04:49:18.417Z,98322.69
2023-01-09T04:51:46.356Z,98331.88
2023-01-09T04:54:14.776Z,98307.44
2023-01-09T04:56:42.613Z,98304.41
2023-01-09T04:59:10.468Z,98325.84
2023-01-09T05:01:40.157Z,98318.31
2023-01-09T05:04:08.800Z,98314.28
2023-01-09T05:06:36.649Z,98354.50
2023-01-09T05:09:04.627Z,98352.00
2023-01-09T05:11:33.596Z,98357.47
2023-01-09T05:14:01.571Z,98363.84
2023-01-09T05:16:30.982Z,98354.22
2023-01-09T05:19:00.577Z,98389.28
2023-01-09T05:21:30.350Z,98358.97
2023-01-09T05:23:58.233Z,98356.63
2023-01-09T05:26:26.238Z,98386.38
2023-01-09T05:28:56.195Z,98400.66
2023-01-09T05:31:25.801Z,98391.69
2023-01-09T05:33:54.327Z,98389.38
2023-01-09T05:36:23.635Z,98398.84
2023-01-09T05:38:51.817Z,98388.00
2023-01-09T05:41:19.707Z,98388.44
2023-01-09T05:43:47.618Z,98402.72
2023-01-09T05:46:15.397Z,98413.81
2023-01-09T05:48:44.559Z,98388.53
2023-01-09T05:51:12.615Z,98412.16
2023-01-09T05:53:41.923Z,98409.22
2023-01-09T05:56:11.702Z,98423.34
2023-01-09T05:58:39.861Z,98416.72
2023-01-09T06:01:07.873Z,98247.88
2023-01-09T06:03:35.953Z,98416.44
2023-01-09T06:06:03.800Z,98418.16
2023-01-09T06:08:31.817Z,98422.13
2023-01-09T06:11:01.240Z,98391.13
2023-01-09T06:13:29.189Z,98428.47
2023-01-09T06:15:57.096Z,98441.53
2023-01-09T06:18:24.948Z,98452.41
2023-01-09T06:20:52.839Z,98391.78
2023-01-09T06:23:20.708Z,98455.94
2023-01-09T06:25:48.634Z,98463.31
2023-01-09T06:28:18.276Z,98467.81
2023-01-09T06:30:46.302Z,98456.41
2023-01-09T06:33:14.309Z,98282.06
2023-01-09T06:35:42.250Z,98387.13
2023-01-09T06:38:10.238Z,98475.53
2023-01-09T06:40:38.023Z,98470.47
2023-01-09T06:43:05.968Z,98481.91
2023-01-09T06:45:35.373Z,98485.84
2023-01-09T06:48:03.482Z,98481.66
2023-01-09T06:50:31.476Z,98425.38
2023-01-09T06:52:59.389Z,98430.13
2023-01-09T06:55:27.343Z,98477.53
2023-01-09T06:57:55.838Z,98473.78
2023-01-09T07:00:23.863Z,98481.41
2023-01-09T07:02:53.143Z,98462.53
2023-01-09T07:05:21.009Z,98461.59
2023-01-09T07:07:48.975Z,98479.22
2023-01-09T07:10:16.992Z,98490.81
2023-01-09T07:12:44.926Z,98458.34
2023-01-09T07:15:14.010Z,98454.88
2023-01-09T07:17:42.110Z,98468.84
2023-01-09T07:20:12.810Z,98484.66
2023-01-09T07:22:40.658Z,98486.97
2023-01-09T07:25:09.124Z,98489.41
2023-01-09T07:27:36.953Z,98478.72
2023-01-09T07:30:05.690Z,98370.19
2023-01-09T07:32:33.558Z,98404.94
2023-01-09T07:35:01.954Z,98520.06
2023-01-09T07:37:31.333Z,98526.44
2023-01-09T07:39:59.222Z,98525.97
2023-01-09T07:42:27.304Z,98463.09
2023-01-09T07:44:55.083Z,98501.88
2023-01-09T07:47:22.955Z,98539.56
2023-01-09T07:49:51.033Z,98502.31
2023-01-09T07:52:19.021Z,98546.16
2023-01-09T07:54:48.205Z,98413.91
2023-01-09T07:57:16.332Z,98542.41
2023-01-09T07:59:44.135Z,98548.28
2023-01-09T08:02:12.408Z,98555.88
2023-01-09T08:04:40.334Z,98422.53
2023-01-09T08:07:08.172Z,98563.06
2023-01-09T08:09:36.052Z,98571.84
2023-01-09T08:12:05.775Z,98564.66
2023-01-09T08:14:33.565Z,98557.03
2023-01-09T08:17:02.606Z,98566.03
2023-01-09T08:19:30.459Z,98447.97
2023-01-09T08:21:58.439Z,98557.91
2023-01-09T08:24:26.316Z,98262.19
2023-01-09T08:26:54.481Z,98474.94
2023-01-09T08:29:23.827Z,98567.78
2023-01-09T08:31:51.751Z,98571.50
2023-01-09T08:34:19.644Z,98571.50
2023-01-09T08:36:47.822Z,98559.44
2023-01-09T08:39:15.849Z,98554.28
2023-01-09T08:42:01.078Z,98500.84
2023-01-09T08:44:47.916Z,98559.16
2023-01-09T08:47:17.604Z,98568.84
2023-01-09T08:49:45.446Z,98522.38
2023-01-09T08:52:13.738Z,98569.66
2023-01-09T08:54:41.661Z,98568.56
2023-01-09T08:57:09.589Z,98532.38
2023-01-09T08:59:38.852Z,98569.47
2023-01-09T09:02:06.597Z,98572.16
2023-01-09T09:04:34.625Z,98436.03
2023-01-09T09:07:02.602Z,98563.94
2023-01-09T09:09:30.371Z,98574.81
2023-01-09T09:11:58.482Z,98575.81
2023-01-09T09:14:44.006Z,98573.53
2023-01-09T09:17:13.421Z,98580.22
2023-01-09T09:19:42.657Z,98573.00
2023-01-09T09:22:10.555Z,98574.47
2023-01-09T09:24:38.551Z,98579.78
2023-01-09T09:27:06.589Z,98574.91
2023-01-09T09:29:34.490Z,98583.38
2023-01-09T09:32:02.354Z,98586.50
2023-01-09T09:34:31.744Z,98546.56
2023-01-09T09:36:59.712Z,98587.78
2023-01-09T09:39:27.637Z,98592.13
2023-01-09T09:42:37.408Z,98581.72
2023-01-09T09:45:19.233Z,98597.78
2023-01-09T09:48:01.436Z,98596.78
2023-01-09T09:50:51.422Z,98594.50
2023-01-09T09:53:26.131Z,98572.69
2023-01-09T09:55:54.862Z,98599.34
2023-01-09T09:58:29.602Z,98593.91
2023-01-09T10:00:59.800Z,98591.16
2023-01-09T10:03:33.946Z,98595.41
2023-01-09T10:06:07.256Z,98594.63
2023-01-09T10:08:40.883Z,98599.09
2023-01-09T10:11:16.728Z,98592.75
2023-01-09T10:14:02.941Z,98573.84
2023-01-09T10:16:41.465Z,98556.97
2023-01-09T10:19:23.294Z,98596.28
2023-01-09T10:22:02.301Z,98584.41
2023-01-09T10:24:41.042Z,98578.41
2023-01-09T10:27:18.755Z,98581.75
2023-01-09T10:30:02.139Z,98579.84
2023-01-09T10:32:40.034Z,98565.41
2023-01-09T10:35:52.886Z,98576.78
2023-01-09T10:38:27.560Z,98572.00
2023-01-09T10:41:01.703Z,98422.66
2023-01-09T10:43:35.981Z,98558.84
2023-01-09T10:46:10.192Z,98554.69
2023-01-09T10:48:43.061Z,98561.44
2023-01-09T10:51:19.317Z,98568.50
2023-01-09T10:53:51.607Z,98493.69
2023-01-09T10:56:24.488Z,98566.56
2023-01-09T10:58:53.926Z,98554.78
2023-01-09T11:01:26.850Z,98566.75
2023-01-09T11:03:55.050Z,98388.59
2023-01-09T11:06:27.379Z,98183.34
2023-01-09T11:09:01.463Z,98364.13
2023-01-09T11:11:35.189Z,98569.88
2023-01-09T11:14:08.321Z,98575.22
2023-01-09T11:16:36.377Z,98564.69
2023-01-09T11:19:04.265Z,98470.16
2023-01-09T11:21:36.116Z,98506.88
2023-01-09T11:24:29.490Z,98570.38
2023-01-09T11:27:23.305Z,98598.34
2023-01-09T11:30:26.610Z,98589.88
2023-01-09T11:32:56.284Z,98573.94
2023-01-09T11:35:28.234Z,98541.84
2023-01-09T11:38:09.475Z,98518.63
2023-01-09T11:40:48.102Z,98597.25
2023-01-09T11:43:20.761Z,98548.78
2023-01-09T11:46:00.619Z,98593.69
2023-01-09T11:48:35.930Z,98603.97
2023-01-09T11:51:08.047Z,98586.31
2023-01-09T11:53:54.733Z,98540.63
2023-01-09T11:56:24.393Z,98591.22
2023-01-09T11:58:52.500Z,98584.16
2023-01-09T12:01:46.318Z,98583.31
2023-01-09T12:04:25.079Z,98587.59
2023-01-09T12:07:22.301Z,98586.56
2023-01-09T12:10:00.240Z,98592.94
2023-01-09T12:12:37.655Z,98595.41
2023-01-09T12:15:24.879Z,98591.31
2023-01-09T12:18:07.611Z,98599.22
2023-01-09T12:20:51.704Z,98598.53
2023-01-09T12:23:39.087Z,98589.75
2023-01-09T12:26:17.454Z,98581.31
2023-01-09T12:29:14.779Z,98604.22
2023-01-09T12:32:03.225Z,98608.88
2023-01-09T12:34:45.755Z,98609.28
2023-01-09T12:37:31.042Z,98591.22
2023-01-09T12:40:10.505Z,98607.72
2023-01-09T12:42:51.311Z,98574.94
2023-01-09T12:45:35.846Z,98612.22
2023-01-09T12:48:16.954Z,98513.97
2023-01-09T12:51:04.898Z,98616.38
2023-01-09T12:53:38.231Z,98613.16
2023-01-09T12:56:10.513Z,98617.81
2023-01-09T12:58:44.592Z,98616.88
2023-01-09T13:01:19.662Z,98599.72
2023-01-09T13:03:51.769Z,98614.69
2023-01-09T13:06:22.680Z,98615.91
2023-01-09T13:08:57.827Z,98610.41
2023-01-09T13:11:33.426Z,98615.31
2023-01-09T13:14:05.835Z,98613.25
2023-01-09T13:16:41.806Z,98614.66
2023-01-09T13:19:17.999Z,98612.41
2023-01-09T13:21:47.266Z,98621.25
2023-01-09T13:24:20.976Z,98501.47
2023-01-09T13:26:54.352Z,98544.75
2023-01-09T13:29:26.141Z,98610.34
2023-01-09T13:32:15.816Z,98535.38
2023-01-09T13:34:47.660Z,98575.03
2023-01-09T13:37:24.103Z,98615.56
2023-01-09T13:39:59.620Z,98615.84
2023-01-09T13:42:39.088Z,98614.28
2023-01-09T13:45:23.916Z,98620.22
2023-01-09T13:48:27.379Z,98607.75
2023-01-09T13:51:34.003Z,98617.91
2023-01-09T13:54:02.009Z,98631.50
2023-01-09T13:56:29.970Z,98555.50
2023-01-09T13:59:03.819Z,98623.66
2023-01-09T14:01:47.469Z,98626.34
2023-01-09T14:04:42.143Z,98643.47
2023-01-09T14:07:26.592Z,98655.75
2023-01-09T14:09:59.109Z,98653.97
2023-01-09T14:12:28.918Z,98685.34
2023-01-09T14:15:00.093Z,98700.00
2023-01-09T14:17:33.321Z,98706.00
2023-01-09T14:20:06.002Z,98664.66
2023-01-09T14:22:45.593Z,98663.59
2023-01-09T14:25:27.056Z,98691.97
2023-01-09T14:28:20.590Z,98704.81
2023-01-09T14:31:10.416Z,98716.31
2023-01-09T14:33:38.933Z,98599.06
2023-01-09T14:36:16.193Z,98726.13
2023-01-09T14:38:47.505Z,98708.88
2023-01-09T14:41:44.578Z,98717.22
2023-01-09T14:44:27.124Z,98692.22
2023-01-09T14:46:56.764Z,98730.88
2023-01-09T14:49:42.283Z,98493.28
2023-01-09T14:52:19.912Z,98746.84
2023-01-09T14:54:50.671Z,98721.34
2023-01-09T14:57:28.994Z,98757.16
2023-01-09T14:59:58.785Z,98762.84
2023-01-09T15:02:29.265Z,98766.00
2023-01-09T15:04:59.648Z,98754.66
2023-01-09T15:07:34.315Z,98763.88
2023-01-09T15:10:03.830Z,98773.50
2023-01-09T15:12:33.249Z,98776.59
2023-01-09T15:15:04.904Z,98781.13
2023-01-09T15:17:37.020Z,98783.13
2023-01-09T15:20:07.478Z,98799.09
2023-01-09T15:22:39.178Z,98783.53
2023-01-09T15:25:34.011Z,98735.44
2023-01-09T15:28:25.355Z,98687.16
2023-01-09T15:31:02.050Z,98815.84
2023-01-09T15:33:30.672Z,98826.00
2023-01-09T15:36:02.839Z,98825.09
2023-01-09T15:38:36.333Z,98823.53
2023-01-09T15:41:10.475Z,98830.75
2023-01-09T15:43:42.178Z,98831.59
2023-01-09T15:46:11.898Z,98736.00
2023-01-09T15:48:39.752Z,98838.09
2023-01-09T15:51:11.966Z,98834.06
2023-01-09T15:53:42.839Z,98808.59
2023-01-09T15:56:19.703Z,98841.97
2023-01-09T15:58:49.483Z,98821.41
2023-01-09T16:01:29.846Z,98756.28
2023-01-09T16:04:04.671Z,98855.56
2023-01-09T16:06:34.523Z,98858.81
2023-01-09T16:09:05.499Z,98841.63
2023-01-09T16:11:35.724Z,98762.25
2023-01-09T16:14:14.099Z,98875.88
2023-01-09T16:16:42.939Z,98876.44
2023-01-09T16:19:29.846Z,98890.91
2023-01-09T16:21:59.403Z,98827.09
2023-01-09T16:24:35.757Z,98889.69
2023-01-09T16:27:24.151Z,98892.84
2023-01-09T16:29:57.450Z,98892.22
2023-01-09T16:32:29.469Z,98808.09
2023-01-09T16:34:59.950Z,98713.56
2023-01-09T16:37:28.478Z,98920.44
2023-01-09T16:40:30.023Z,98923.00
2023-01-09T16:43:03.898Z,98813.91
2023-01-09T16:45:35.196Z,98838.66
2023-01-09T16:48:04.823Z,98915.03
2023-01-09T16:50:32.900Z,98924.59
2023-01-09T16:53:03.119Z,98937.88
2023-01-09T16:55:30.810Z,98938.88
2023-01-09T16:58:00.351Z,98823.69
2023-01-09T17:00:28.330Z,98951.03
2023-01-09T17:02:57.286Z,98949.22
2023-01-09T17:05:25.155Z,98846.41
2023-01-09T17:07:53.121Z,98867.47
2023-01-09T17:10:22.809Z,98959.78
2023-01-09T17:12:50.659Z,98882.78
2023-01-09T17:15:19.938Z,98983.34
2023-01-09T17:17:47.964Z,98984.72
2023-01-09T17:20:20.535Z,98881.19
2023-01-09T17:22:48.377Z,98990.13
2023-01-09T17:25:34.294Z,98861.44
2023-01-09T17:28:20.583Z,98880.53
2023-01-09T17:30:50.076Z,98942.53
2023-01-09T17:33:19.216Z,98995.78
2023-01-09T17:35:47.467Z,98993.34
2023-01-09T17:38:16.404Z,99001.97
2023-01-09T17:40:45.041Z,99024.09
2023-01-09T17:43:13.441Z,99020.97
2023-01-09T17:45:43.019Z,99015.03
2023-01-09T17:48:18.168Z,98968.41
2023-01-09T17:50:47.166Z,99041.53
2023-01-09T17:53:15.786Z,99053.63
2023-01-09T17:55:44.037Z,99065.94
2023-01-09T17:58:25.907Z,99068.28
2023-01-09T18:00:54.033Z,99077.88
2023-01-09T18:03:25.883Z,99073.22
2023-01-09T18:05:53.954Z,98897.66
2023-01-09T18:08:21.802Z,99089.31
2023-01-09T18:10:50.757Z,99098.53
2023-01-09T18:13:18.584Z,99096.31
2023-01-09T18:15:47.561Z,99084.66
2023-01-09T18:18:16.293Z,99011.53
2023-01-09T18:20:46.475Z,99116.75
2023-01-09T18:23:14.852Z,99116.03
2023-01-09T18:25:43.522Z,98981.88
2023-01-09T18:28:15.136Z,99120.34
2023-01-09T18:30:45.577Z,99123.06
2023-01-09T18:33:14.262Z,99086.13
2023-01-09T18:35:42.358Z,99085.63
2023-01-09T18:38:12.536Z,99143.84
2023-01-09T18:40:41.886Z,99151.97
2023-01-09T18:43:11.417Z,99161.38
2023-01-09T18:45:39.989Z,99089.13
2023-01-09T18:48:09.527Z,99000.03
2023-01-09T18:50:37.546Z,99166.09
2023-01-09T18:53:06.303Z,99099.25
2023-01-09T18:55:37.308Z,99121.25
2023-01-09T18:58:06.003Z,99057.56
2023-01-09T19:00:34.264Z,99179.81
2023-01-09T19:03:02.208Z,99196.19
2023-01-09T19:05:30.110Z,99144.03
2023-01-09T19:07:58.007Z,99199.25
2023-01-09T19:10:26.034Z,99205.28
2023-01-09T19:12:55.347Z,99183.16
2023-01-09T19:15:23.288Z,99124.38
2023-01-09T19:17:51.785Z,99226.59
2023-01-09T19:20:20.171Z,99234.41
2023-01-09T19:22:48.368Z,99209.13
2023-01-09T19:25:16.518Z,99236.41
2023-01-09T19:27:44.400Z,99238.56
2023-01-09T19:30:14.870Z,99232.56
2023-01-09T19:32:42.689Z,99241.91
2023-01-09T19:35:10.777Z,99243.34
2023-01-09T19:37:38.808Z,99254.53
2023-01-09T19:40:07.899Z,99258.56
2023-01-09T19:42:35.734Z,99147.09
2023-01-09T19:45:04.221Z,99231.13
2023-01-09T19:47:36.980Z,99272.28
2023-01-09T19:50:06.068Z,99194.28
2023-01-09T19:52:33.965Z,99021.59
2023-01-09T19:55:01.761Z,99247.16
2023-01-09T19:57:29.913Z,99101.28
2023-01-09T19:59:57.911Z,99180.94
2023-01-09T20:02:25.866Z,99245.06
2023-01-09T20:04:55.288Z,99283.91
2023-01-09T20:07:23.229Z,99293.34
2023-01-09T20:09:51.105Z,99281.09
2023-01-09T20:12:19.093Z,99270.31
2023-01-09T20:14:47.015Z,99310.72
2023-01-09T20:17:16.638Z,99325.06
2023-01-09T20:19:45.714Z,99300.28
2023-01-09T20:22:15.282Z,99208.38
2023-01-09T20:24:43.221Z,99237.16
2023-01-09T20:27:11.105Z,99323.22
2023-01-09T20:29:39.050Z,99335.09
2023-01-09T20:32:07.689Z,99334.72
2023-01-09T20:34:35.646Z,99347.06
2023-01-09T20:37:03.707Z,99264.78
2023-01-09T20:39:33.069Z,99354.47
2023-01-09T20:42:01.085Z,99355.28
2023-01-09T20:44:29.171Z,99357.34
2023-01-09T20:46:57.052Z,99365.94
2023-01-09T20:49:25.185Z,99370.88
2023-01-09T20:51:53.841Z,99352.88
2023-01-09T20:54:22.690Z,99386.53
2023-01-09T20:56:52.063Z,99384.88
2023-01-09T20:59:22.122Z,99384.38
2023-01-09T21:01:50.819Z,99375.66
2023-01-09T21:04:19.086Z,99407.56
2023-01-09T21:06:49.651Z,99397.13
2023-01-09T21:09:17.952Z,99395.19
2023-01-09T21:11:46.044Z,99413.41
2023-01-09T21:14:15.425Z,99423.56
2023-01-09T21:16:47.901Z,99427.50
2023-01-09T21:19:22.293Z,99424.75
2023-01-09T21:21:52.931Z,99433.44
2023-01-09T21:24:21.141Z,99428.78
2023-01-09T21:26:49.296Z,99420.66
2023-01-09T21:29:18.687Z,99432.13
2023-01-09T21:31:46.643Z,99416.50
2023-01-09T21:34:17.399Z,99433.28
2023-01-09T21:36:48.568Z,99452.50
2023-01-09T21:39:16.907Z,99468.72
2023-01-09T21:42:02.233Z,99465.94
2023-01-09T21:44:49.021Z,99475.44
2023-01-09T21:47:16.893Z,99439.47
2023-01-09T21:49:46.016Z,99491.13
2023-01-09T21:52:15.413Z,99492.78
2023-01-09T21:54:43.628Z,99495.06
2023-01-09T21:57:13.433Z,99390.88
2023-01-09T21:59:42.844Z,99497.75
2023-01-09T22:02:12.846Z,99463.19
2023-01-09T22:04:43.189Z,99506.94
2023-01-09T22:07:11.440Z,99514.56
2023-01-09T22:09:39.575Z,99516.53
2023-01-09T22:12:08.104Z,99529.41
2023-01-09T22:14:38.862Z,99526.66
2023-01-09T22:17:08.916Z,99535.16
2023-01-09T22:19:37.945Z,99507.94
2023-01-09T22:22:07.385Z,99514.56
2023-01-09T22:24:35.552Z,99524.50
2023-01-09T22:27:03.856Z,99542.84
2023-01-09T22:29:31.975Z,99561.09
2023-01-09T22:31:59.954Z,99394.31
2023-01-09T22:34:31.001Z,99551.13
2023-01-09T22:36:59.133Z,99568.91
2023-01-09T22:39:27.039Z,99558.94
2023-01-09T22:41:55.340Z,99559.03
2023-01-09T22:44:23.544Z,99578.50
2023-01-09T22:46:51.673Z,99382.22
2023-01-09T22:49:19.736Z,99550.78
2023-01-09T22:51:48.977Z,99586.66
2023-01-09T22:54:17.109Z,99566.91
2023-01-09T22:56:45.098Z,99509.66
2023-01-09T22:59:13.082Z,99602.50
2023-01-09T23:01:41.129Z,99582.22
2023-01-09T23:04:13.436Z,99586.53
2023-01-09T23:06:41.412Z,99582.25
2023-01-09T23:09:11.047Z,99540.41
2023-01-09T23:11:57.510Z,99604.63
2023-01-09T23:14:29.092Z,99619.16
2023-01-09T23:16:57.540Z,99579.03
2023-01-09T23:19:25.747Z,99620.03
2023-01-09T23:21:53.832Z,99628.59
2023-01-09T23:24:23.306Z,99627.88
2023-01-09T23:26:52.409Z,99445.06
2023-01-09T23:29:20.458Z,99634.31
2023-01-09T23:31:48.466Z,99631.50
2023-01-09T23:34:19.750Z,99641.16
2023-01-09T23:36:48.815Z,99628.25
2023-01-09T23:39:16.796Z,99620.19
2023-01-09T23:42:03.816Z,99635.56
2023-01-09T23:44:31.781Z,99640.41
2023-01-09T23:47:00.204Z,99649.19
2023-01-09T23:49:29.027Z,99665.34
2023-01-09T23:51:57.467Z,99668.53
2023-01-09T23:54:26.178Z,99670.78
2023-01-09T23:56:56.622Z,99676.69
2023-01-09T23:59:24.674Z,99673.44
